Time;durP1;ratioP1;P1;durP2;ratioP2;P2;SDS_P1;SDS_P2;PMS_P1;PMS_P2;Temp;Humidity;BMP_temperature;BMP_pressure;BME280_temperature;BME280_humidity;BME280_pressure;Samples;Min_cycle;Max_cycle;Signal;HPM_P1;HPM_P2
2023/01/21 00:01:48;;;;;;;42.78;23.70;;;;;;;-5.27;98.51;95908.84;5089560;28;20428;-62
2023/01/21 00:04:13;;;;;;;28.88;17.33;;;;;;;-5.25;98.57;95903.66;5084141;28;20134;-62
2023/01/21 00:06:38;;;;;;;36.00;20.20;;;;;;;-5.26;97.97;95897.69;5092197;28;20012;-62
2023/01/21 00:09:04;;;;;;;15.15;10.15;;;;;;;-5.24;97.47;95898.47;5069134;28;20032;-62
2023/01/21 00:11:29;;;;;;;18.25;11.07;;;;;;;-5.21;97.95;95898.41;5074010;28;20027;-62
2023/01/21 00:13:56;;;;;;;16.48;12.05;;;;;;;-5.18;98.35;95900.06;5096197;28;20393;-64
2023/01/21 00:16:22;;;;;;;16.25;11.98;;;;;;;-5.20;99.05;95900.06;5094973;28;20088;-68
2023/01/21 00:18:47;;;;;;;16.90;12.15;;;;;;;-5.21;100.00;95897.56;5074252;28;20439;-66
2023/01/21 00:21:13;;;;;;;16.77;12.13;;;;;;;-5.20;100.00;95888.97;5090735;28;20485;-66
2023/01/21 00:23:38;;;;;;;22.08;16.00;;;;;;;-5.20;99.40;95902.66;5093749;28;20036;-66
2023/01/21 00:26:05;;;;;;;29.77;22.42;;;;;;;-5.19;99.78;95894.09;5087430;28;20439;-66
2023/01/21 00:28:32;;;;;;;35.20;25.02;;;;;;;-5.18;99.33;95908.59;5089998;28;20432;-67
2023/01/21 00:30:59;;;;;;;31.83;23.02;;;;;;;-5.21;100.00;95895.81;5090493;28;20034;-65
2023/01/21 00:33:26;;;;;;;24.35;17.67;;;;;;;-5.27;100.00;95893.44;5094679;28;20107;-62
2023/01/21 00:36:06;;;;;;;24.20;18.00;;;;;;;-5.27;100.00;95906.28;5090123;28;20058;-61
2023/01/21 00:38:31;;;;;;;22.98;17.42;;;;;;;-5.26;100.00;95899.44;5096531;28;20073;-62
2023/01/21 00:41:01;;;;;;;18.92;14.85;;;;;;;-5.26;100.00;95894.28;5089499;28;20028;-62
2023/01/21 00:43:27;;;;;;;15.27;13.63;;;;;;;-5.27;100.00;95892.59;5091177;28;20019;-61
2023/01/21 00:45:52;;;;;;;15.32;12.35;;;;;;;-5.25;100.00;95890.84;5087707;28;20040;-61
2023/01/21 00:48:17;;;;;;;13.65;11.45;;;;;;;-5.25;100.00;95895.97;5092409;28;20140;-62
2023/01/21 00:50:42;;;;;;;16.92;14.15;;;;;;;-5.21;100.00;95898.41;5090005;28;20047;-62
2023/01/21 00:53:08;;;;;;;17.10;15.05;;;;;;;-5.26;100.00;95882.28;5089456;28;20031;-68
2023/01/21 00:55:33;;;;;;;16.10;11.82;;;;;;;-5.26;100.00;95882.28;5091046;28;20032;-68
2023/01/21 00:57:58;;;;;;;11.98;10.70;;;;;;;-5.20;100.00;95879.53;5093195;28;20043;-62
2023/01/21 01:00:24;;;;;;;12.50;9.60;;;;;;;-5.16;100.00;95879.47;5088430;28;20474;-61
2023/01/21 01:02:49;;;;;;;12.95;9.23;;;;;;;-5.14;100.00;95886.25;5093113;28;20027;-61
2023/01/21 01:05:15;;;;;;;11.95;9.30;;;;;;;-5.18;100.00;95879.50;5087409;28;20020;-61
2023/01/21 01:07:42;;;;;;;13.15;10.10;;;;;;;-5.18;100.00;95871.81;5097068;28;20048;-62
2023/01/21 01:10:09;;;;;;;12.55;10.43;;;;;;;-5.14;100.00;95878.53;5086696;28;20110;-61
2023/01/21 01:12:34;;;;;;;13.15;10.70;;;;;;;-5.17;100.00;95873.50;5091535;28;20019;-62
2023/01/21 01:14:59;;;;;;;11.93;10.45;;;;;;;-5.24;100.00;95870.25;5091944;28;20516;-61
2023/01/21 01:17:24;;;;;;;14.20;11.23;;;;;;;-5.27;100.00;95872.06;5091782;28;21067;-63
2023/01/21 01:19:50;;;;;;;15.23;12.48;;;;;;;-5.32;100.00;95875.56;5089152;28;20028;-63
2023/01/21 01:22:15;;;;;;;16.65;12.70;;;;;;;-5.36;100.00;95879.13;5092374;28;20571;-63
2023/01/21 01:24:40;;;;;;;15.52;11.88;;;;;;;-5.36;100.00;95873.16;5091915;28;20146;-63
2023/01/21 01:27:06;;;;;;;20.70;13.57;;;;;;;-5.36;100.00;95875.72;5088568;28;20060;-63
2023/01/21 01:29:31;;;;;;;16.70;12.88;;;;;;;-5.35;100.00;95875.66;5090772;28;20028;-63
2023/01/21 01:31:56;;;;;;;17.33;12.43;;;;;;;-5.36;100.00;95876.53;5095327;28;20023;-61
2023/01/21 01:34:22;;;;;;;15.70;12.60;;;;;;;-5.35;100.00;95867.13;5090078;28;20036;-63
2023/01/21 01:36:48;;;;;;;15.05;12.55;;;;;;;-5.38;100.00;95865.47;5086999;28;20465;-63
2023/01/21 01:39:13;;;;;;;13.80;11.68;;;;;;;-5.41;100.00;95860.44;5089956;28;20454;-63
2023/01/21 01:41:38;;;;;;;13.02;11.07;;;;;;;-5.38;100.00;95865.47;5095154;28;20069;-63
2023/01/21 01:44:25;;;;;;;13.40;10.52;;;;;;;-5.40;100.00;95867.25;5094386;28;20024;-63
2023/01/21 01:46:51;;;;;;;15.65;11.95;;;;;;;-5.44;100.00;95859.66;5089763;28;20063;-64
2023/01/21 01:49:20;;;;;;;12.85;10.13;;;;;;;-5.35;100.00;95869.72;5094482;28;20048;-64
2023/01/21 01:52:02;;;;;;;13.32;11.93;;;;;;;-5.42;100.00;95861.31;5090769;28;20023;-74
2023/01/21 01:54:32;;;;;;;13.50;11.48;;;;;;;-5.51;100.00;95862.41;5095819;28;20099;-69
2023/01/21 01:57:00;;;;;;;16.20;11.88;;;;;;;-5.27;100.00;95857.50;5087072;28;20118;-68
2023/01/21 01:59:28;;;;;;;13.45;11.60;;;;;;;-5.30;100.00;95864.47;5087324;28;20020;-68
2023/01/21 02:01:56;;;;;;;15.30;13.07;;;;;;;-5.31;100.00;95855.91;5088358;28;20054;-68
2023/01/21 02:04:28;;;;;;;15.55;12.45;;;;;;;-5.57;100.00;95860.00;5089274;28;20536;-69
2023/01/21 02:06:55;;;;;;;17.05;13.73;;;;;;;-5.67;100.00;95859.41;5086455;28;20573;-69
2023/01/21 02:09:23;;;;;;;22.23;19.88;;;;;;;-5.75;100.00;95853.59;5082618;28;20032;-69
2023/01/21 02:11:49;;;;;;;18.88;16.60;;;;;;;-5.85;100.00;95844.47;5097979;28;20032;-62
2023/01/21 02:14:15;;;;;;;35.63;32.10;;;;;;;-5.91;100.00;95850.59;5093812;28;20024;-65
2023/01/21 02:16:59;;;;;;;15.35;13.60;;;;;;;-5.99;100.00;95850.75;5088551;28;20109;-63
2023/01/21 02:19:43;;;;;;;17.27;12.93;;;;;;;-6.02;100.00;95848.31;5089717;28;20520;-63
2023/01/21 02:22:16;;;;;;;14.57;12.88;;;;;;;-5.99;100.00;95844.81;5086468;28;20501;-64
2023/01/21 02:25:43;;;;;;;14.77;12.30;;;;;;;-6.05;100.00;95846.69;5091555;28;20028;-63
2023/01/21 02:28:32;;;;;;;16.60;13.43;;;;;;;-6.08;100.00;95841.63;5032737;28;20053;-65
2023/01/21 02:31:35;;;;;;;15.73;12.10;;;;;;;-6.00;100.00;95846.50;5036285;28;20045;-69
2023/01/21 02:34:09;;;;;;;11.90;10.50;;;;;;;-5.90;100.00;95842.88;5081607;28;20513;-65
2023/01/21 02:36:43;;;;;;;10.40;9.30;;;;;;;-6.09;100.00;95839.91;5093196;28;20027;-66
2023/01/21 02:39:33;;;;;;;12.27;10.82;;;;;;;-6.15;100.00;95837.50;5087780;28;20039;-66
2023/01/21 02:42:12;;;;;;;11.68;10.52;;;;;;;-6.22;100.00;95833.44;5089524;28;20028;-67
2023/01/21 02:45:10;;;;;;;16.88;13.00;;;;;;;-6.27;100.00;95838.66;5084260;28;20024;-65
2023/01/21 02:47:47;;;;;;;13.32;12.00;;;;;;;-6.30;100.00;95831.03;5067974;28;20048;-67
2023/01/21 02:50:39;;;;;;;13.43;11.98;;;;;;;-6.22;100.00;95830.88;5088516;28;20043;-69
2023/01/21 02:53:04;;;;;;;13.20;11.85;;;;;;;-6.33;100.00;95829.38;5080434;28;20048;-62
2023/01/21 02:55:37;;;;;;;13.40;12.00;;;;;;;-6.36;100.00;95829.44;5081548;28;20023;-62
2023/01/21 02:58:11;;;;;;;12.90;11.30;;;;;;;-6.34;100.00;95824.31;5086794;28;20035;-61
2023/01/21 03:01:25;;;;;;;12.77;11.45;;;;;;;-6.42;100.00;95808.25;5093800;28;20027;-61
2023/01/21 03:04:14;;;;;;;13.35;11.55;;;;;;;-6.50;100.00;95816.97;5060830;28;20180;-62
2023/01/21 03:07:12;;;;;;;12.45;11.18;;;;;;;-6.56;100.00;95816.25;5086236;28;20024;-61
2023/01/21 03:09:38;;;;;;;15.52;12.32;;;;;;;-6.67;100.00;95819.91;5091901;28;20054;-68
2023/01/21 03:12:31;;;;;;;13.45;12.05;;;;;;;-6.77;100.00;95813.31;5096937;28;20509;-66
2023/01/21 03:18:02;;;;;;;13.38;12.00;;;;;;;-6.84;100.00;95809.19;5086820;28;20036;-67
2023/01/21 03:20:27;;;;;;;;;;;;;;;-6.92;100.00;95802.53;5091677;28;20043;-67
2023/01/21 03:23:00;;;;;;;10.97;9.87;;;;;;;-6.94;100.00;95799.16;5092589;28;19922;-67
2023/01/21 03:25:29;;;;;;;11.40;10.30;;;;;;;-6.95;100.00;95796.63;5100972;28;20285;-67
2023/01/21 03:27:57;;;;;;;10.80;9.45;;;;;;;-6.89;100.00;95796.50;5084006;28;20024;-64
2023/01/21 03:30:24;;;;;;;15.15;9.27;;;;;;;-6.91;100.00;95793.97;5092043;28;20039;-74
2023/01/21 03:32:51;;;;;;;11.30;10.20;;;;;;;-6.89;100.00;95800.78;5090146;28;20031;-74
2023/01/21 03:35:24;;;;;;;10.50;9.38;;;;;;;-6.97;100.00;95794.09;5085271;28;20028;-74
2023/01/21 03:38:02;;;;;;;11.38;10.10;;;;;;;-7.02;100.00;95783.13;5087220;28;20501;-74
2023/01/21 03:40:40;;;;;;;11.65;10.55;;;;;;;-7.01;100.00;95781.41;5092869;28;20057;-74
2023/01/21 03:43:06;;;;;;;10.88;9.75;;;;;;;-7.01;100.00;95784.81;5089892;28;20514;-74
2023/01/21 03:45:59;;;;;;;10.63;9.63;;;;;;;-6.97;100.00;95783.84;5084035;28;20028;-74
2023/01/21 03:48:35;;;;;;;11.35;9.40;;;;;;;-6.92;100.00;95784.63;5092551;28;20021;-62
2023/01/21 03:51:08;;;;;;;11.63;10.32;;;;;;;-6.91;100.00;95783.75;5091769;28;20024;-68
2023/01/21 03:53:34;;;;;;;10.85;9.85;;;;;;;-6.92;100.00;95779.50;5091015;28;20199;-69
2023/01/21 03:55:59;;;;;;;11.10;9.90;;;;;;;-6.94;100.00;95777.84;5086733;28;20032;-68
2023/01/21 03:58:26;;;;;;;12.32;10.93;;;;;;;-6.85;100.00;95769.09;5091590;28;20012;-68
2023/01/21 04:00:51;;;;;;;11.80;10.30;;;;;;;-6.89;100.00;95772.63;5098254;28;20032;-68
2023/01/21 04:03:16;;;;;;;11.65;10.55;;;;;;;-6.96;100.00;95775.31;5096617;28;20039;-70
2023/01/21 04:05:42;;;;;;;11.43;10.38;;;;;;;-6.98;100.00;95778.78;5091833;28;20035;-61
2023/01/21 04:08:07;;;;;;;12.40;10.32;;;;;;;-6.97;100.00;95773.63;5093697;28;20103;-68
2023/01/21 04:10:33;;;;;;;10.70;9.60;;;;;;;-6.98;100.00;95761.69;5092586;28;20413;-69
2023/01/21 04:12:58;;;;;;;11.88;10.38;;;;;;;-6.97;100.00;95771.06;5090634;28;20020;-68
2023/01/21 04:15:23;;;;;;;11.75;10.43;;;;;;;-6.99;100.00;95764.31;5096202;28;20173;-68
2023/01/21 04:17:49;;;;;;;12.07;10.00;;;;;;;-6.96;100.00;95772.75;5096988;28;20073;-69
2023/01/21 04:20:14;;;;;;;11.30;10.18;;;;;;;-6.97;100.00;95771.06;5094252;28;20027;-68
2023/01/21 04:22:39;;;;;;;12.43;11.23;;;;;;;-7.11;100.00;95773.91;5092371;28;20098;-68
2023/01/21 04:25:05;;;;;;;13.20;10.98;;;;;;;-7.20;100.00;95771.56;5097831;28;20024;-63
2023/01/21 04:27:30;;;;;;;12.30;10.10;;;;;;;-7.05;100.00;95768.69;5098457;28;20085;-68
2023/01/21 04:29:55;;;;;;;13.13;11.73;;;;;;;-7.16;100.00;95768.06;5093471;28;20115;-64
2023/01/21 04:32:21;;;;;;;12.43;10.52;;;;;;;-7.15;100.00;95761.25;5099381;28;20031;-64
2023/01/21 04:34:46;;;;;;;10.82;9.73;;;;;;;-7.12;100.00;95769.66;5097655;28;20032;-64
2023/01/21 04:37:12;;;;;;;12.80;11.27;;;;;;;-7.13;100.00;95765.44;5097735;28;20046;-64
2023/01/21 04:39:37;;;;;;;11.15;10.02;;;;;;;-7.20;100.00;95763.88;5091766;28;20537;-64
2023/01/21 04:42:02;;;;;;;12.57;11.35;;;;;;;-7.19;100.00;95765.56;5093904;28;20142;-64
2023/01/21 04:44:28;;;;;;;12.80;11.50;;;;;;;-7.19;100.00;95756.16;5095254;28;20043;-61
2023/01/21 04:46:53;;;;;;;13.35;10.45;;;;;;;-7.20;100.00;95757.03;5099946;28;20058;-67
2023/01/21 04:49:18;;;;;;;11.30;9.38;;;;;;;-7.26;100.00;95757.19;5095731;28;20031;-68
2023/01/21 04:51:44;;;;;;;10.48;9.48;;;;;;;-7.24;100.00;95752.03;5094840;28;20106;-68
2023/01/21 04:54:10;;;;;;;11.10;9.88;;;;;;;-7.27;100.00;95750.38;5092891;28;20031;-69
2023/01/21 04:56:35;;;;;;;11.60;10.43;;;;;;;-7.33;100.00;95747.94;5090597;28;20023;-69
2023/01/21 04:59:00;;;;;;;10.70;9.70;;;;;;;-7.35;100.00;95749.69;5095988;28;20016;-68
2023/01/21 05:01:26;;;;;;;9.70;8.80;;;;;;;-7.38;100.00;95734.41;5091295;28;20074;-68
2023/01/21 05:03:51;;;;;;;10.85;9.70;;;;;;;-7.40;100.00;95746.41;5093022;28;20028;-69
2023/01/21 05:06:16;;;;;;;11.23;10.00;;;;;;;-7.33;100.00;95747.94;5091136;28;20062;-63
2023/01/21 05:08:42;;;;;;;12.30;10.20;;;;;;;-7.39;100.00;95750.66;5093243;28;20039;-66
2023/01/21 05:11:08;;;;;;;12.10;10.65;;;;;;;-7.40;100.00;95748.97;5093015;28;20024;-65
2023/01/21 05:13:33;;;;;;;10.85;9.82;;;;;;;-7.45;100.00;95754.16;5092469;28;20123;-66
2023/01/21 05:16:08;;;;;;;11.02;9.88;;;;;;;-7.43;100.00;95751.56;5092321;28;20382;-65
2023/01/21 05:18:35;;;;;;;12.30;11.07;;;;;;;-7.41;100.00;95744.69;5093796;28;20077;-65
2023/01/21 05:21:00;;;;;;;11.10;10.10;;;;;;;-7.46;100.00;95744.81;5073462;28;20040;-65
2023/01/21 05:23:25;;;;;;;12.43;10.10;;;;;;;-7.51;100.00;95738.94;5093926;28;20099;-73
2023/01/21 05:25:51;;;;;;;33.63;22.48;;;;;;;-7.51;100.00;95744.06;5091865;28;20028;-66
2023/01/21 05:28:16;;;;;;;39.60;23.67;;;;;;;-7.51;100.00;95739.78;5096655;28;20030;-66
2023/01/21 05:30:41;;;;;;;42.08;28.83;;;;;;;-7.51;100.00;95738.94;5093886;28;20041;-68
2023/01/21 05:33:07;;;;;;;41.13;26.70;;;;;;;-7.48;100.00;95738.88;5094203;28;20485;-67
2023/01/21 05:35:33;;;;;;;16.75;13.30;;;;;;;-7.57;100.00;95737.34;5090411;28;20497;-67
2023/01/21 05:37:59;;;;;;;15.32;13.70;;;;;;;-7.65;100.00;95734.94;5055083;28;1100472;-68
2023/01/21 05:40:24;;;;;;;17.30;13.45;;;;;;;-7.69;100.00;95727.34;5096892;28;20049;-68
2023/01/21 05:42:49;;;;;;;18.13;13.10;;;;;;;-7.74;100.00;95726.63;5093569;28;20020;-68
2023/01/21 05:45:15;;;;;;;22.38;15.02;;;;;;;-7.73;100.00;95729.16;5092677;28;20051;-63
2023/01/21 05:47:40;;;;;;;15.15;12.55;;;;;;;-7.77;100.00;95732.63;5090833;28;20987;-64
2023/01/21 05:50:07;;;;;;;25.73;17.27;;;;;;;-7.78;100.00;95730.94;5094944;28;20085;-64
2023/01/21 05:52:32;;;;;;;17.30;13.38;;;;;;;-7.85;100.00;95732.75;5092576;28;20024;-63
2023/01/21 05:54:57;;;;;;;16.88;12.65;;;;;;;-7.92;100.00;95733.75;5089227;28;20084;-63
2023/01/21 05:57:23;;;;;;;13.90;12.05;;;;;;;-7.94;100.00;95720.16;5090248;28;20027;-64
2023/01/21 05:59:48;;;;;;;12.68;11.38;;;;;;;-7.96;100.00;95722.78;5093640;28;20034;-63
2023/01/21 06:02:13;;;;;;;12.95;11.52;;;;;;;-7.97;100.00;95725.34;5093620;28;20032;-61
2023/01/21 06:04:39;;;;;;;12.27;10.98;;;;;;;-7.98;100.00;95716.81;5092458;28;20034;-76
2023/01/21 06:07:04;;;;;;;12.13;10.93;;;;;;;-8.00;100.00;95720.28;5093496;28;20390;-77
2023/01/21 06:09:29;;;;;;;12.02;10.82;;;;;;;-8.04;100.00;95719.50;5093770;28;20595;-74
2023/01/21 06:11:55;;;;;;;11.77;10.57;;;;;;;-8.00;100.00;95725.41;5092193;28;20396;-74
2023/01/21 06:14:20;;;;;;;16.65;10.50;;;;;;;-8.04;100.00;95731.44;5101328;28;20076;-74
2023/01/21 06:16:45;;;;;;;14.95;13.45;;;;;;;-8.11;100.00;95723.88;5093227;28;20397;-74
2023/01/21 06:19:11;;;;;;;25.42;19.83;;;;;;;-8.11;100.00;95723.88;5092553;28;20069;-74
2023/01/21 06:21:36;;;;;;;18.40;15.45;;;;;;;-8.18;100.00;95726.56;5091925;28;20028;-67
2023/01/21 06:24:01;;;;;;;15.27;13.60;;;;;;;-8.28;100.00;95725.91;5092936;28;20563;-75
2023/01/21 06:26:27;;;;;;;13.25;11.95;;;;;;;-8.28;100.00;95723.34;5090961;28;20028;-76
2023/01/21 06:28:55;;;;;;;14.52;13.05;;;;;;;-8.29;100.00;95730.16;5091457;28;20032;-75
2023/01/21 06:31:20;;;;;;;15.23;12.90;;;;;;;-8.28;100.00;95724.19;5092724;28;20031;-74
2023/01/21 06:33:45;;;;;;;21.70;16.55;;;;;;;-8.29;100.00;95729.31;5091034;28;20413;-75
2023/01/21 06:36:10;;;;;;;25.70;21.67;;;;;;;-8.32;100.00;95724.25;5094684;28;20512;-75
2023/01/21 06:38:36;;;;;;;19.60;16.85;;;;;;;-8.35;100.00;95731.09;5090223;28;20042;-75
2023/01/21 06:41:02;;;;;;;22.05;19.63;;;;;;;-8.35;100.00;95726.00;5092543;28;20036;-68
2023/01/21 06:43:27;;;;;;;19.33;16.40;;;;;;;-8.37;100.00;95726.91;5093313;28;20030;-63
2023/01/21 06:45:53;;;;;;;18.13;15.70;;;;;;;-8.40;100.00;95722.69;5093418;28;20406;-63
2023/01/21 06:48:19;;;;;;;17.02;14.88;;;;;;;-8.31;100.00;95725.94;5093680;28;20135;-63
2023/01/21 06:50:44;;;;;;;16.33;14.55;;;;;;;-8.27;100.00;95730.16;5094814;28;20059;-64
2023/01/21 06:53:10;;;;;;;16.23;14.52;;;;;;;-8.26;100.00;95730.09;5093135;28;20664;-63
2023/01/21 06:55:35;;;;;;;15.23;13.73;;;;;;;-8.24;100.00;95717.31;5089757;28;20072;-63
2023/01/21 06:58:00;;;;;;;14.48;12.98;;;;;;;-8.24;100.00;95722.44;5094608;28;20113;-64
2023/01/21 07:00:25;;;;;;;14.60;13.15;;;;;;;-8.22;100.00;95720.69;5093631;28;20043;-61
2023/01/21 07:02:56;;;;;;;17.23;12.40;;;;;;;-8.27;100.00;95715.66;5095547;28;20035;-63
2023/01/21 07:05:21;;;;;;;13.30;12.07;;;;;;;-8.31;100.00;95728.50;5092955;28;20032;-63
2023/01/21 07:07:46;;;;;;;14.27;12.77;;;;;;;-8.28;100.00;95720.81;5092955;28;20055;-63
2023/01/21 07:10:12;;;;;;;17.80;15.55;;;;;;;-8.28;100.00;95725.91;5093002;28;20032;-63
2023/01/21 07:12:37;;;;;;;32.97;25.25;;;;;;;-8.31;100.00;95724.25;5090781;28;20394;-63
2023/01/21 07:15:03;;;;;;;70.65;51.78;;;;;;;-8.28;100.00;95731.03;5094821;28;20070;-64
2023/01/21 07:17:28;;;;;;;34.13;25.85;;;;;;;-8.27;100.00;95725.03;5092686;28;20024;-64
2023/01/21 07:19:53;;;;;;;28.52;22.20;;;;;;;-8.32;100.00;95727.66;5092524;28;20478;-67
2023/01/21 07:22:19;;;;;;;23.98;21.40;;;;;;;-8.32;100.00;95730.22;5090578;28;20478;-67
2023/01/21 07:24:44;;;;;;;22.88;18.33;;;;;;;-8.27;100.00;95725.03;5090258;28;20371;-69
2023/01/21 07:27:10;;;;;;;21.63;17.75;;;;;;;-8.24;100.00;95730.91;5094531;28;20016;-69
2023/01/21 07:29:35;;;;;;;17.20;15.18;;;;;;;-8.21;100.00;95735.16;5089885;28;20035;-68
2023/01/21 07:32:00;;;;;;;18.92;14.65;;;;;;;-8.25;100.00;95738.63;5093789;28;20028;-68
2023/01/21 07:34:26;;;;;;;17.02;15.32;;;;;;;-8.27;100.00;95736.09;5093802;28;20016;-65
2023/01/21 07:36:51;;;;;;;18.77;15.38;;;;;;;-8.23;100.00;95740.28;5093461;28;20031;-68
2023/01/21 07:39:16;;;;;;;22.58;19.05;;;;;;;-8.15;100.00;95736.75;5090545;28;20039;-73
2023/01/21 07:41:42;;;;;;;18.20;16.30;;;;;;;-8.11;100.00;95741.75;5090035;28;20062;-67
2023/01/21 07:44:08;;;;;;;18.38;16.67;;;;;;;-8.12;100.00;95737.53;5091706;28;20035;-67
2023/01/21 07:46:33;;;;;;;17.77;15.65;;;;;;;-8.14;100.00;95739.25;5095669;28;20118;-69
2023/01/21 07:48:59;;;;;;;19.90;17.67;;;;;;;-8.10;100.00;95730.66;5089178;28;20111;-68
2023/01/21 07:51:24;;;;;;;38.78;30.23;;;;;;;-8.06;100.00;95734.88;5091654;28;20032;-66
2023/01/21 07:53:49;;;;;;;26.42;23.00;;;;;;;-8.02;100.00;95737.38;5094868;28;20502;-68
2023/01/21 07:56:16;;;;;;;22.80;18.10;;;;;;;-8.01;100.00;95732.22;5091548;28;20028;-70
2023/01/21 07:58:42;;;;;;;22.38;17.75;;;;;;;-7.98;100.00;95733.88;5089545;28;20020;-64
2023/01/21 08:01:09;;;;;;;17.90;16.00;;;;;;;-7.99;100.00;95738.13;5098041;28;20091;-72
2023/01/21 08:03:35;;;;;;;16.67;14.18;;;;;;;-8.00;100.00;95740.75;5095639;28;20474;-71
2023/01/21 08:06:01;;;;;;;14.43;12.93;;;;;;;-8.00;100.00;95741.56;5090141;28;20031;-70
2023/01/21 08:08:26;;;;;;;14.32;12.93;;;;;;;-7.96;100.00;95734.69;5090707;28;20512;-70
2023/01/21 08:10:53;;;;;;;15.35;13.85;;;;;;;-7.91;100.00;95730.34;5091070;28;20111;-71
2023/01/21 08:13:18;;;;;;;18.70;13.88;;;;;;;-7.88;100.00;95739.66;5093272;28;20108;-70
2023/01/21 08:15:44;;;;;;;17.23;13.73;;;;;;;-7.82;100.00;95731.88;5089431;28;20509;-64
2023/01/21 08:18:09;;;;;;;13.95;12.38;;;;;;;-7.77;100.00;95740.28;5091636;28;20020;-70
2023/01/21 08:20:34;;;;;;;15.10;13.55;;;;;;;-7.73;100.00;95739.38;5094392;28;20046;-69
2023/01/21 08:23:00;;;;;;;14.63;13.23;;;;;;;-7.70;100.00;95730.78;5091419;28;20039;-68
2023/01/21 08:25:25;;;;;;;16.17;14.43;;;;;;;-7.70;100.00;95738.47;5089817;28;20035;-69
2023/01/21 08:27:51;;;;;;;20.00;16.30;;;;;;;-7.66;100.00;95734.97;5090971;28;20505;-69
2023/01/21 08:30:16;;;;;;;15.57;14.07;;;;;;;-7.63;100.00;95740.00;5093777;28;20107;-69
2023/01/21 08:32:42;;;;;;;17.02;15.38;;;;;;;-7.55;100.00;95750.94;5100153;28;20031;-68
2023/01/21 08:35:08;;;;;;;15.82;14.23;;;;;;;-7.48;100.00;95742.28;5096954;28;20032;-62
2023/01/21 08:37:33;;;;;;;14.55;12.98;;;;;;;-7.28;100.00;95737.63;5093754;28;20490;-61
2023/01/21 08:39:58;;;;;;;19.77;16.77;;;;;;;-7.33;100.00;95745.41;5094413;28;20043;-68
2023/01/21 08:42:24;;;;;;;15.57;14.07;;;;;;;-7.38;100.00;95744.66;5094553;28;20031;-67
2023/01/21 08:44:50;;;;;;;25.08;22.38;;;;;;;-7.42;100.00;95737.91;5096715;28;20020;-69
2023/01/21 08:47:16;;;;;;;22.02;19.65;;;;;;;-7.44;100.00;95739.66;5097803;28;20072;-69
2023/01/21 08:49:43;;;;;;;30.42;25.83;;;;;;;-7.42;100.00;95732.78;5096479;28;20028;-70
2023/01/21 08:52:09;;;;;;;44.00;28.52;;;;;;;-7.38;100.00;95739.53;5092981;28;20024;-69
2023/01/21 08:54:34;;;;;;;19.90;17.63;;;;;;;-7.21;100.00;95740.00;5093468;28;20409;-62
2023/01/21 08:56:59;;;;;;;24.33;18.00;;;;;;;-6.94;100.00;95734.31;5091928;28;20170;-72
2023/01/21 08:59:27;;;;;;;54.88;39.00;;;;;;;-6.67;100.00;95731.97;5095321;28;20031;-70
2023/01/21 09:01:53;;;;;;;38.63;28.58;;;;;;;-6.52;100.00;95736.75;5099799;28;20475;-72
2023/01/21 09:04:19;;;;;;;29.60;26.38;;;;;;;-6.29;100.00;95737.06;5095996;28;20058;-70
2023/01/21 09:06:44;;;;;;;29.05;25.77;;;;;;;-6.20;100.00;95731.69;5094485;28;20070;-73
2023/01/21 09:09:10;;;;;;;19.80;17.77;;;;;;;-6.05;100.00;95736.44;5092355;28;20024;-72
2023/01/21 09:11:35;;;;;;;20.00;15.48;;;;;;;-5.96;100.00;95739.59;5103874;28;20035;-72
2023/01/21 09:14:02;;;;;;;52.08;33.17;;;;;;;-5.87;100.00;95733.41;5094715;28;20035;-69
2023/01/21 09:16:30;;;;;;;25.23;15.45;;;;;;;-5.66;100.00;95729.38;5094351;28;20024;-66
2023/01/21 09:18:57;;;;;;;26.85;17.08;;;;;;;-5.41;100.00;95736.44;5093986;28;20490;-77
2023/01/21 09:21:22;;;;;;;17.63;14.43;;;;;;;-5.22;100.00;95734.97;5088280;28;20035;-74
2023/01/21 09:23:47;;;;;;;12.98;11.60;;;;;;;-5.14;99.11;95739.91;5091144;28;20030;-72
2023/01/21 09:26:12;;;;;;;16.17;14.48;;;;;;;-4.87;99.68;95732.25;5073511;28;20135;-73
2023/01/21 09:28:41;;;;;;;16.45;14.75;;;;;;;-4.77;97.91;95732.81;5089221;28;20108;-72
2023/01/21 09:31:12;;;;;;;29.73;17.60;;;;;;;-4.73;98.53;95734.41;5090567;28;20053;-74
2023/01/21 09:33:40;;;;;;;16.25;11.68;;;;;;;-4.62;99.17;95736.66;5094790;28;20128;-65
2023/01/21 09:36:07;;;;;;;12.18;10.98;;;;;;;-4.41;99.63;95739.41;5096109;28;20035;-66
2023/01/21 09:38:32;;;;;;;19.98;18.08;;;;;;;-4.43;98.79;95731.75;5093191;28;20121;-70
2023/01/21 09:41:19;;;;;;;16.80;14.95;;;;;;;-4.38;96.92;95724.72;5075634;28;20039;-68
2023/01/21 09:43:53;;;;;;;15.65;12.25;;;;;;;-4.40;97.61;95734.22;5094704;28;20024;-70
2023/01/21 09:46:37;;;;;;;15.98;13.18;;;;;;;-4.33;98.54;95725.41;5092042;28;20024;-69
2023/01/21 09:49:08;;;;;;;12.98;11.48;;;;;;;-4.32;95.78;95724.50;5086997;28;20032;-70
2023/01/21 09:51:47;;;;;;;23.25;16.00;;;;;;;-4.47;94.20;95725.03;5085759;28;20020;-68
2023/01/21 09:54:28;;;;;;;26.02;18.00;;;;;;;-4.52;96.79;95727.75;5089194;28;20525;-67
2023/01/21 09:57:11;;;;;;;27.30;20.33;;;;;;;-4.42;97.45;95718.00;5087019;28;20079;-66
2023/01/21 10:00:10;;;;;;;20.42;18.35;;;;;;;-4.13;95.82;95718.75;5091056;28;20030;-66
2023/01/21 10:02:47;;;;;;;19.15;17.33;;;;;;;-4.23;95.52;95717.41;5072792;28;20027;-67
2023/01/21 10:05:51;;;;;;;16.02;14.32;;;;;;;-4.25;95.57;95716.63;5070055;28;20050;-66
2023/01/21 10:08:35;;;;;;;14.27;12.68;;;;;;;-4.42;95.36;95720.56;5043125;28;20139;-65
2023/01/21 10:11:20;;;;;;;33.88;25.83;;;;;;;-4.33;95.37;95714.28;5086439;28;20039;-66
2023/01/21 10:14:07;;;;;;;21.70;15.93;;;;;;;-4.19;94.24;95704.41;5087616;28;20051;-73
2023/01/21 10:17:26;;;;;;;22.45;18.73;;;;;;;-4.25;93.91;95704.59;5080642;28;20039;-64
2023/01/21 10:20:03;;;;;;;19.77;16.75;;;;;;;-4.26;94.48;95707.22;5031123;28;20037;-63
2023/01/21 10:22:29;;;;;;;12.07;10.88;;;;;;;-4.41;94.37;95701.69;5079486;28;20066;-63
2023/01/21 10:25:22;;;;;;;14.70;13.23;;;;;;;-4.17;93.80;95699.19;5089065;28;20099;-63
2023/01/21 10:27:47;;;;;;;19.90;17.67;;;;;;;-4.50;93.64;95691.72;5079673;28;20039;-63
2023/01/21 10:30:27;;;;;;;19.63;16.70;;;;;;;-4.64;95.38;95695.56;5066848;28;20511;-63
2023/01/21 10:32:54;;;;;;;16.60;13.70;;;;;;;-4.61;95.55;95685.19;5088175;28;20099;-66
2023/01/21 10:35:33;;;;;;;15.93;14.32;;;;;;;-4.53;94.64;95678.94;5089283;28;20103;-67
2023/01/21 10:38:12;;;;;;;16.48;14.88;;;;;;;-4.23;93.77;95681.41;5088266;28;20051;-66
2023/01/21 10:40:54;;;;;;;20.52;18.63;;;;;;;-4.07;94.15;95684.28;5088631;28;20034;-63
2023/01/21 10:43:43;;;;;;;15.25;13.85;;;;;;;-3.94;93.73;95682.97;5088343;28;20028;-66
2023/01/21 10:46:18;;;;;;;19.30;17.40;;;;;;;-3.56;93.13;95685.06;5090296;28;20504;-66
2023/01/21 10:48:47;;;;;;;;;;;;;;;-3.10;90.47;95674.75;5092380;28;20460;-65
2023/01/21 10:51:28;;;;;;;25.05;20.00;;;;;;;-2.63;90.21;95668.63;5092837;28;19919;-70
2023/01/21 10:54:18;;;;;;;25.35;20.48;;;;;;;-2.34;87.87;95678.66;5088947;28;20031;-70
2023/01/21 10:56:57;;;;;;;69.50;43.47;;;;;;;-2.21;85.97;95679.00;5090916;28;20020;-68
2023/01/21 10:59:26;;;;;;;40.35;27.35;;;;;;;-2.13;83.82;95664.03;5092019;28;20091;-71
2023/01/21 11:02:27;;;;;;;17.30;15.48;;;;;;;-1.88;78.78;95674.16;5097773;28;20108;-73
2023/01/21 11:04:54;;;;;;;21.75;17.05;;;;;;;-1.77;76.55;95670.25;5090497;28;20521;-69
2023/01/21 11:07:21;;;;;;;19.15;14.23;;;;;;;-1.71;76.10;95670.00;5090704;28;20509;-69
2023/01/21 11:09:47;;;;;;;16.25;14.18;;;;;;;-1.59;75.77;95666.03;5093385;28;20601;-67
2023/01/21 11:12:17;;;;;;;22.70;17.60;;;;;;;-1.31;77.17;95659.63;5090783;28;20036;-67
2023/01/21 11:14:47;;;;;;;17.15;13.82;;;;;;;-1.08;75.61;95655.13;5090022;28;20043;-74
2023/01/21 11:17:26;;;;;;;15.40;13.57;;;;;;;-0.95;75.93;95660.56;5092632;28;20028;-75
2023/01/21 11:20:01;;;;;;;16.85;14.93;;;;;;;-1.01;75.67;95653.94;5092218;28;20038;-72
2023/01/21 11:22:31;;;;;;;12.60;11.40;;;;;;;-1.40;74.70;95650.53;5088755;28;20149;-72
2023/01/21 11:24:57;;;;;;;11.65;10.55;;;;;;;-1.38;73.44;95655.66;5095191;28;20107;-69
2023/01/21 11:27:38;;;;;;;10.18;9.18;;;;;;;-1.31;70.74;95649.28;5095012;28;20104;-71